»·PEaware :: N9273T KRNM-KSBA

N9273T :: KRNM-KSBA

FLIGHT INFORMATION

Flight Status: Arrived
Operator: Privately registered:
United States
More flights under this callsign
Pilot: Jim L. (28297)
Aircraft: BEECH AIRCRAFT DEBONAIR BONANZA
(BE33)
More flights by this aircraft type
Origin: KRNM Ramona
United States
Destination: KSBA Santa Barbara Mun
United States
More flights between these airports :: More routes between these airports
Route: +ROBNN V208 OCN V23 LAX V299 VTU VTU282R KWANG
File this flight plan on PilotEdge
Remarks: TEC route SANP35
Altitude:
(Current/Filed)
6,000ft
Speed:
(Current/Filed)
150kts
Departed: 17-Sep-20 11:42 AM
Arrived: 17-Sep-20 12:47 PM
Distance/Time
Traveled:
168nm/1:05
Distance/Time
To Go:
Arrived

Flight Plot

Page will automatically refresh every two minutes.

Flight plan parsing failed; only flown route is shown


Map Options




Map Legend


Flown Route
Filed Route
Departure Airport
Arrival Airport
Navaid (VOR, NDB)
Fix

Horizontal Profiles

Position Reports

Time Latitude Longitude Heading Altitude Ground
Speed
17-Sep-20 11:20 33.039293 -116.908021 275 1398ft 0kts
17-Sep-20 11:20 33.039293 -116.908021 275 1398ft 0kts
17-Sep-20 11:21 33.039293 -116.908021 275 1398ft 0kts
17-Sep-20 11:22 33.039293 -116.908023 275 1398ft 0kts
17-Sep-20 11:23 33.039293 -116.908023 275 1398ft 0kts
17-Sep-20 11:24 33.039293 -116.908023 275 1398ft 0kts
17-Sep-20 11:25 33.039294 -116.908037 274 1398ft 0kts
17-Sep-20 11:26 33.039294 -116.908037 274 1398ft 0kts
17-Sep-20 11:27 33.039294 -116.908037 274 1398ft 0kts
17-Sep-20 11:28 33.039294 -116.908037 274 1398ft 0kts
17-Sep-20 11:29 33.039294 -116.908037 274 1398ft 0kts
17-Sep-20 11:30 33.039294 -116.908037 274 1398ft 0kts
17-Sep-20 11:31 33.039294 -116.908037 274 1398ft 0kts
17-Sep-20 11:32 33.039294 -116.908037 274 1398ft 0kts
17-Sep-20 11:33 33.039294 -116.908037 274 1398ft 0kts
17-Sep-20 11:34 33.039294 -116.908037 274 1398ft 0kts
17-Sep-20 11:35 33.039294 -116.908037 274 1398ft 0kts
17-Sep-20 11:36 33.039294 -116.908037 274 1398ft 0kts
17-Sep-20 11:37 33.039294 -116.908037 274 1398ft 0kts
17-Sep-20 11:38 33.038938 -116.908214 173 1399ft 6kts
17-Sep-20 11:39 33.038495 -116.907485 182 1398ft 0kts
17-Sep-20 11:40 33.038091 -116.907998 279 1398ft 15kts
17-Sep-20 11:41 33.046003 -116.927361 324 2326ft 85kts
17-Sep-20 11:42 33.064517 -116.944514 312 3209ft 90kts
17-Sep-20 11:43 33.083177 -116.965729 315 4056ft 94kts
17-Sep-20 11:44 33.106675 -116.996695 310 4126ft 155kts
17-Sep-20 11:45 33.141602 -117.033001 316 3883ft 175kts
17-Sep-20 11:46 33.172776 -117.068388 314 4694ft 138kts
17-Sep-20 11:47 33.191632 -117.101895 277 5663ft 115kts
17-Sep-20 11:48 33.197665 -117.143354 278 6008ft 145kts
17-Sep-20 11:49 33.205539 -117.193255 278 6001ft 157kts
17-Sep-20 11:50 33.213659 -117.244999 278 5999ft 160kts
17-Sep-20 11:51 33.221864 -117.297534 279 5999ft 161kts
17-Sep-20 11:52 33.230054 -117.350040 279 5998ft 161kts
17-Sep-20 11:53 33.238233 -117.402703 279 5998ft 161kts
17-Sep-20 11:54 33.263629 -117.445023 314 6036ft 162kts
17-Sep-20 11:55 33.296189 -117.482784 314 6036ft 163kts
17-Sep-20 11:56 33.328708 -117.520616 315 6036ft 163kts
17-Sep-20 11:57 33.361333 -117.558634 315 6035ft 163kts
17-Sep-20 11:58 33.393921 -117.596695 315 6036ft 165kts
17-Sep-20 11:59 33.423350 -117.631113 315 6036ft 166kts
17-Sep-20 12:00 33.456486 -117.669888 314 6036ft 166kts
17-Sep-20 12:01 33.489616 -117.708704 315 6036ft 166kts
17-Sep-20 12:02 33.525684 -117.743651 320 6036ft 166kts
17-Sep-20 12:03 33.562007 -117.778262 321 6036ft 167kts
17-Sep-20 12:04 33.598667 -117.812595 321 6036ft 167kts
17-Sep-20 12:05 33.635222 -117.846872 321 6036ft 167kts
17-Sep-20 12:06 33.665818 -117.886891 295 6031ft 166kts
17-Sep-20 12:07 33.689421 -117.934840 300 6026ft 166kts
17-Sep-20 12:08 33.713202 -117.982785 299 6021ft 167kts
17-Sep-20 12:09 33.736795 -118.030702 299 6015ft 166kts
17-Sep-20 12:10 33.760278 -118.078509 299 6010ft 165kts
17-Sep-20 12:11 33.783656 -118.126147 299 6008ft 165kts
17-Sep-20 12:12 33.806933 -118.173655 299 6008ft 164kts
17-Sep-20 12:13 33.830144 -118.221050 299 6010ft 164kts
17-Sep-20 12:14 33.853370 -118.268579 299 6009ft 164kts
17-Sep-20 12:15 33.876616 -118.316189 299 6009ft 164kts
17-Sep-20 12:16 33.899704 -118.363586 299 6009ft 161kts
17-Sep-20 12:17 33.922706 -118.410974 299 6010ft 168kts
17-Sep-20 12:18 33.942894 -118.462275 290 6009ft 170kts
17-Sep-20 12:19 33.959834 -118.515568 290 6009ft 170kts
17-Sep-20 12:20 33.976773 -118.568914 290 6009ft 170kts
17-Sep-20 12:21 33.993696 -118.622116 290 6009ft 169kts
17-Sep-20 12:22 34.010573 -118.675277 289 6009ft 170kts
17-Sep-20 12:23 34.027603 -118.728985 289 6000ft 171kts
17-Sep-20 12:24 34.044231 -118.782768 287 6000ft 170kts
17-Sep-20 12:25 34.058512 -118.837280 286 6006ft 170kts
17-Sep-20 12:26 34.072926 -118.891685 286 6019ft 169kts
17-Sep-20 12:27 34.087400 -118.945916 287 6032ft 169kts
17-Sep-20 12:28 34.101789 -118.999972 287 6035ft 169kts
17-Sep-20 12:29 34.116824 -119.053772 295 6043ft 169kts
17-Sep-20 12:30 34.138875 -119.105923 296 5549ft 180kts
17-Sep-20 12:31 34.161588 -119.160413 296 4854ft 182kts
17-Sep-20 12:32 34.184139 -119.214258 296 4148ft 176kts
17-Sep-20 12:33 34.204687 -119.263631 296 4042ft 154kts
17-Sep-20 12:34 34.223514 -119.308654 296 4044ft 147kts
17-Sep-20 12:35 34.242675 -119.354652 297 4046ft 156kts
17-Sep-20 12:36 34.262329 -119.401763 296 4046ft 157kts
17-Sep-20 12:37 34.281982 -119.449040 296 4054ft 157kts
17-Sep-20 12:39 34.311463 -119.520020 296 4054ft 157kts
17-Sep-20 12:40 34.339505 -119.592405 295 3841ft 164kts
17-Sep-20 12:41 34.359068 -119.643071 296 3145ft 167kts
17-Sep-20 12:42 34.378791 -119.694022 295 2444ft 166kts
17-Sep-20 12:43 34.397514 -119.743462 294 1960ft 158kts
17-Sep-20 12:44 34.414335 -119.788083 291 1260ft 130kts
17-Sep-20 12:45 34.426664 -119.820448 284 322ft 79kts
17-Sep-20 12:46 34.427759 -119.841233 266 13ft 12kts
17-Sep-20 12:47 34.429847 -119.842069 53 14ft 15kts
17-Sep-20 12:48 34.431049 -119.838783 72 15ft 9kts
17-Sep-20 12:49 34.432299 -119.836060 347 17ft 7kts
17-Sep-20 12:51 34.432487 -119.835775 94 17ft 0kts

Navigation Log

Ident Type
Flight plan parsing failed, navigation log unavailable